sensor_id;sensor_type;location;lat;lon;timestamp;temperature;humidity
10278;DHT22;5184;51.376;7.148;2023-01-28T00:00:14;2.20;1.00
10278;DHT22;5184;51.376;7.148;2023-01-28T00:02:41;2.20;1.00
10278;DHT22;5184;51.376;7.148;2023-01-28T00:05:07;2.30;1.00
10278;DHT22;5184;51.376;7.148;2023-01-28T00:07:34;2.20;99.90
10278;DHT22;5184;51.376;7.148;2023-01-28T00:10:00;2.20;99.90
10278;DHT22;5184;51.376;7.148;2023-01-28T00:12:27;2.20;99.90
10278;DHT22;5184;51.376;7.148;2023-01-28T00:14:54;2.20;99.90
10278;DHT22;5184;51.376;7.148;2023-01-28T00:17:22;2.20;99.90
10278;DHT22;5184;51.376;7.148;2023-01-28T00:19:49;2.20;99.90
10278;DHT22;5184;51.376;7.148;2023-01-28T00:22:16;2.20;1.00
10278;DHT22;5184;51.376;7.148;2023-01-28T00:24:44;2.20;20.40
10278;DHT22;5184;51.376;7.148;2023-01-28T00:27:11;2.10;99.90
10278;DHT22;5184;51.376;7.148;2023-01-28T00:29:39;2.10;99.90
10278;DHT22;5184;51.376;7.148;2023-01-28T00:32:06;2.00;1.00
10278;DHT22;5184;51.376;7.148;2023-01-28T00:34:33;2.00;1.00
10278;DHT22;5184;51.376;7.148;2023-01-28T00:37:01;2.00;1.00
10278;DHT22;5184;51.376;7.148;2023-01-28T00:39:28;2.00;1.00
10278;DHT22;5184;51.376;7.148;2023-01-28T00:41:55;2.00;1.00
10278;DHT22;5184;51.376;7.148;2023-01-28T00:44:23;1.90;1.00
10278;DHT22;5184;51.376;7.148;2023-01-28T00:46:50;1.90;1.00
10278;DHT22;5184;51.376;7.148;2023-01-28T00:49:17;1.90;20.20
10278;DHT22;5184;51.376;7.148;2023-01-28T00:51:44;1.90;15.90
10278;DHT22;5184;51.376;7.148;2023-01-28T00:54:11;2.00;37.60
10278;DHT22;5184;51.376;7.148;2023-01-28T00:56:37;2.00;8.40
10278;DHT22;5184;51.376;7.148;2023-01-28T00:59:04;2.00;1.00
10278;DHT22;5184;51.376;7.148;2023-01-28T01:01:31;2.00;30.30
10278;DHT22;5184;51.376;7.148;2023-01-28T01:03:57;0.70;99.90
10278;DHT22;5184;51.376;7.148;2023-01-28T01:06:33;2.00;99.90
10278;DHT22;5184;51.376;7.148;2023-01-28T01:09:00;2.00;99.90
10278;DHT22;5184;51.376;7.148;2023-01-28T01:11:26;2.00;99.90
10278;DHT22;5184;51.376;7.148;2023-01-28T01:13:53;2.00;99.90
10278;DHT22;5184;51.376;7.148;2023-01-28T01:16:20;2.00;99.90
10278;DHT22;5184;51.376;7.148;2023-01-28T01:18:46;2.00;99.90
10278;DHT22;5184;51.376;7.148;2023-01-28T01:21:13;2.00;99.90
10278;DHT22;5184;51.376;7.148;2023-01-28T01:23:40;2.00;1.00
10278;DHT22;5184;51.376;7.148;2023-01-28T01:29:06;2.00;1.00
10278;DHT22;5184;51.376;7.148;2023-01-28T01:31:33;2.00;99.90
10278;DHT22;5184;51.376;7.148;2023-01-28T01:34:01;2.00;99.90
10278;DHT22;5184;51.376;7.148;2023-01-28T01:36:27;2.00;99.90
10278;DHT22;5184;51.376;7.148;2023-01-28T01:38:54;1.90;99.90
10278;DHT22;5184;51.376;7.148;2023-01-28T01:41:23;1.90;99.90
10278;DHT22;5184;51.376;7.148;2023-01-28T01:43:50;1.90;99.90
10278;DHT22;5184;51.376;7.148;2023-01-28T01:46:19;1.90;99.90
10278;DHT22;5184;51.376;7.148;2023-01-28T01:48:44;1.90;99.90
10278;DHT22;5184;51.376;7.148;2023-01-28T01:51:13;1.90;99.90
10278;DHT22;5184;51.376;7.148;2023-01-28T01:53:41;1.90;99.90
10278;DHT22;5184;51.376;7.148;2023-01-28T01:56:06;1.90;99.90
10278;DHT22;5184;51.376;7.148;2023-01-28T01:58:34;1.90;99.90
10278;DHT22;5184;51.376;7.148;2023-01-28T02:00:59;1.90;99.90
10278;DHT22;5184;51.376;7.148;2023-01-28T02:03:30;1.90;99.90
10278;DHT22;5184;51.376;7.148;2023-01-28T02:05:54;1.90;99.90
10278;DHT22;5184;51.376;7.148;2023-01-28T02:08:21;3.70;99.90
10278;DHT22;5184;51.376;7.148;2023-01-28T02:10:48;1.90;99.90
10278;DHT22;5184;51.376;7.148;2023-01-28T02:13:14;1.90;1.00
10278;DHT22;5184;51.376;7.148;2023-01-28T02:15:41;1.90;1.00
10278;DHT22;5184;51.376;7.148;2023-01-28T02:18:08;1.10;1.00
10278;DHT22;5184;51.376;7.148;2023-01-28T02:21:03;1.70;1.00
10278;DHT22;5184;51.376;7.148;2023-01-28T02:23:31;1.80;1.00
10278;DHT22;5184;51.376;7.148;2023-01-28T02:28:40;1.70;63.40
10278;DHT22;5184;51.376;7.148;2023-01-28T02:31:13;1.70;99.90
10278;DHT22;5184;51.376;7.148;2023-01-28T02:33:43;1.70;99.90
10278;DHT22;5184;51.376;7.148;2023-01-28T02:36:15;1.70;99.90
10278;DHT22;5184;51.376;7.148;2023-01-28T02:38:40;1.70;99.90
10278;DHT22;5184;51.376;7.148;2023-01-28T02:41:08;1.70;99.90
10278;DHT22;5184;51.376;7.148;2023-01-28T02:43:36;1.70;99.90
10278;DHT22;5184;51.376;7.148;2023-01-28T02:46:11;1.70;99.90
10278;DHT22;5184;51.376;7.148;2023-01-28T02:48:41;1.80;99.90
10278;DHT22;5184;51.376;7.148;2023-01-28T02:51:09;1.70;99.90
10278;DHT22;5184;51.376;7.148;2023-01-28T02:53:44;1.70;99.90
10278;DHT22;5184;51.376;7.148;2023-01-28T02:56:29;1.70;89.30
10278;DHT22;5184;51.376;7.148;2023-01-28T02:59:08;1.70;99.90
10278;DHT22;5184;51.376;7.148;2023-01-28T03:01:34;1.70;99.90
10278;DHT22;5184;51.376;7.148;2023-01-28T03:04:02;1.60;99.90
10278;DHT22;5184;51.376;7.148;2023-01-28T03:06:30;1.70;99.90
10278;DHT22;5184;51.376;7.148;2023-01-28T03:08:57;1.70;70.60
10278;DHT22;5184;51.376;7.148;2023-01-28T03:11:45;1.70;66.40
10278;DHT22;5184;51.376;7.148;2023-01-28T03:14:15;1.60;1.00
10278;DHT22;5184;51.376;7.148;2023-01-28T03:16:48;1.60;1.00
10278;DHT22;5184;51.376;7.148;2023-01-28T03:19:20;1.60;12.90
10278;DHT22;5184;51.376;7.148;2023-01-28T03:21:52;1.60;99.90
10278;DHT22;5184;51.376;7.148;2023-01-28T03:24:28;1.60;1.00
10278;DHT22;5184;51.376;7.148;2023-01-28T03:27:04;1.60;1.00
10278;DHT22;5184;51.376;7.148;2023-01-28T03:29:34;1.50;1.00
10278;DHT22;5184;51.376;7.148;2023-01-28T03:32:07;1.60;99.90
10278;DHT22;5184;51.376;7.148;2023-01-28T03:34:40;1.50;1.00
10278;DHT22;5184;51.376;7.148;2023-01-28T03:37:12;1.50;1.00
10278;DHT22;5184;51.376;7.148;2023-01-28T03:39:39;1.50;1.00
10278;DHT22;5184;51.376;7.148;2023-01-28T03:42:08;1.50;1.00
10278;DHT22;5184;51.376;7.148;2023-01-28T03:44:33;1.50;1.00
10278;DHT22;5184;51.376;7.148;2023-01-28T03:47:05;1.60;1.00
10278;DHT22;5184;51.376;7.148;2023-01-28T03:49:32;1.50;1.00
10278;DHT22;5184;51.376;7.148;2023-01-28T03:51:58;1.50;1.00
10278;DHT22;5184;51.376;7.148;2023-01-28T03:54:25;1.50;1.00
10278;DHT22;5184;51.376;7.148;2023-01-28T03:56:52;1.50;11.90
10278;DHT22;5184;51.376;7.148;2023-01-28T03:59:18;1.50;1.00
10278;DHT22;5184;51.376;7.148;2023-01-28T04:01:45;1.50;1.00
10278;DHT22;5184;51.376;7.148;2023-01-28T04:04:12;1.50;1.00
10278;DHT22;5184;51.376;7.148;2023-01-28T04:06:38;1.40;1.00
10278;DHT22;5184;51.376;7.148;2023-01-28T04:09:05;1.40;1.00
10278;DHT22;5184;51.376;7.148;2023-01-28T04:11:31;1.40;1.00
10278;DHT22;5184;51.376;7.148;2023-01-28T04:13:58;1.40;1.00
10278;DHT22;5184;51.376;7.148;2023-01-28T04:16:25;1.40;1.00
10278;DHT22;5184;51.376;7.148;2023-01-28T04:18:52;1.40;1.00
10278;DHT22;5184;51.376;7.148;2023-01-28T04:21:18;1.40;1.00
10278;DHT22;5184;51.376;7.148;2023-01-28T04:23:45;1.40;1.00
10278;DHT22;5184;51.376;7.148;2023-01-28T04:26:12;1.50;1.00
10278;DHT22;5184;51.376;7.148;2023-01-28T04:28:38;1.40;99.90
10278;DHT22;5184;51.376;7.148;2023-01-28T04:31:05;1.30;99.90
10278;DHT22;5184;51.376;7.148;2023-01-28T04:33:32;1.40;99.90
10278;DHT22;5184;51.376;7.148;2023-01-28T04:36:00;1.40;1.00
10278;DHT22;5184;51.376;7.148;2023-01-28T04:38:27;1.30;1.00
10278;DHT22;5184;51.376;7.148;2023-01-28T04:40:54;1.40;1.00
10278;DHT22;5184;51.376;7.148;2023-01-28T04:43:21;1.30;1.00
10278;DHT22;5184;51.376;7.148;2023-01-28T04:45:48;1.30;1.00
10278;DHT22;5184;51.376;7.148;2023-01-28T04:48:15;1.30;1.00
10278;DHT22;5184;51.376;7.148;2023-01-28T04:50:42;1.30;1.00
10278;DHT22;5184;51.376;7.148;2023-01-28T04:53:08;1.30;1.00
10278;DHT22;5184;51.376;7.148;2023-01-28T04:55:35;1.30;1.00
10278;DHT22;5184;51.376;7.148;2023-01-28T04:58:02;1.40;99.90
10278;DHT22;5184;51.376;7.148;2023-01-28T05:00:29;1.40;99.90
10278;DHT22;5184;51.376;7.148;2023-01-28T05:02:55;1.30;99.90
10278;DHT22;5184;51.376;7.148;2023-01-28T05:05:22;1.30;99.90
10278;DHT22;5184;51.376;7.148;2023-01-28T05:07:51;1.20;99.90
10278;DHT22;5184;51.376;7.148;2023-01-28T05:10:17;1.30;99.90
10278;DHT22;5184;51.376;7.148;2023-01-28T05:12:44;1.30;99.90
10278;DHT22;5184;51.376;7.148;2023-01-28T05:15:11;1.20;1.00
10278;DHT22;5184;51.376;7.148;2023-01-28T05:17:38;1.30;1.00
10278;DHT22;5184;51.376;7.148;2023-01-28T05:20:06;1.20;99.90
10278;DHT22;5184;51.376;7.148;2023-01-28T05:22:32;1.20;99.90
10278;DHT22;5184;51.376;7.148;2023-01-28T05:24:59;1.20;99.90
10278;DHT22;5184;51.376;7.148;2023-01-28T05:27:26;1.20;99.90
10278;DHT22;5184;51.376;7.148;2023-01-28T05:29:53;1.20;99.90
10278;DHT22;5184;51.376;7.148;2023-01-28T05:32:20;1.20;99.90
10278;DHT22;5184;51.376;7.148;2023-01-28T05:34:48;1.20;58.90
10278;DHT22;5184;51.376;7.148;2023-01-28T05:37:15;1.20;1.00
10278;DHT22;5184;51.376;7.148;2023-01-28T05:39:42;1.20;1.00
10278;DHT22;5184;51.376;7.148;2023-01-28T05:42:08;1.20;1.00
10278;DHT22;5184;51.376;7.148;2023-01-28T05:44:35;0.90;1.00
10278;DHT22;5184;51.376;7.148;2023-01-28T05:47:01;1.20;99.90
10278;DHT22;5184;51.376;7.148;2023-01-28T05:49:28;1.20;99.90
10278;DHT22;5184;51.376;7.148;2023-01-28T05:51:55;1.20;99.90
10278;DHT22;5184;51.376;7.148;2023-01-28T05:54:22;1.10;99.90
10278;DHT22;5184;51.376;7.148;2023-01-28T05:56:49;1.10;62.80
10278;DHT22;5184;51.376;7.148;2023-01-28T05:59:16;1.10;56.00
10278;DHT22;5184;51.376;7.148;2023-01-28T06:01:42;1.10;99.90
10278;DHT22;5184;51.376;7.148;2023-01-28T06:04:09;1.10;99.90
10278;DHT22;5184;51.376;7.148;2023-01-28T06:06:36;1.10;99.90
10278;DHT22;5184;51.376;7.148;2023-01-28T06:09:03;1.10;99.90
10278;DHT22;5184;51.376;7.148;2023-01-28T06:11:29;1.10;99.90
10278;DHT22;5184;51.376;7.148;2023-01-28T06:13:56;1.10;99.90
10278;DHT22;5184;51.376;7.148;2023-01-28T06:16:22;1.10;99.90
10278;DHT22;5184;51.376;7.148;2023-01-28T06:18:49;1.10;99.90
10278;DHT22;5184;51.376;7.148;2023-01-28T06:21:16;1.10;99.90
10278;DHT22;5184;51.376;7.148;2023-01-28T06:23:44;1.10;99.90
10278;DHT22;5184;51.376;7.148;2023-01-28T06:26:10;1.10;99.90
10278;DHT22;5184;51.376;7.148;2023-01-28T06:28:37;1.10;1.00
10278;DHT22;5184;51.376;7.148;2023-01-28T06:31:03;1.10;1.00
10278;DHT22;5184;51.376;7.148;2023-01-28T06:33:30;1.00;1.00
10278;DHT22;5184;51.376;7.148;2023-01-28T06:35:57;1.00;1.00
10278;DHT22;5184;51.376;7.148;2023-01-28T06:38:23;1.00;1.00
10278;DHT22;5184;51.376;7.148;2023-01-28T06:40:51;1.00;1.00
10278;DHT22;5184;51.376;7.148;2023-01-28T06:43:18;1.00;1.00
10278;DHT22;5184;51.376;7.148;2023-01-28T06:45:45;1.10;1.00
10278;DHT22;5184;51.376;7.148;2023-01-28T06:48:13;1.10;1.00
10278;DHT22;5184;51.376;7.148;2023-01-28T06:50:40;1.00;1.00
10278;DHT22;5184;51.376;7.148;2023-01-28T06:53:07;1.00;1.00
10278;DHT22;5184;51.376;7.148;2023-01-28T06:55:35;1.00;1.00
10278;DHT22;5184;51.376;7.148;2023-01-28T06:58:01;1.00;1.00
10278;DHT22;5184;51.376;7.148;2023-01-28T07:00:28;1.00;1.00
10278;DHT22;5184;51.376;7.148;2023-01-28T07:02:55;1.00;1.00
10278;DHT22;5184;51.376;7.148;2023-01-28T07:05:21;1.00;1.00
10278;DHT22;5184;51.376;7.148;2023-01-28T07:07:48;1.00;1.00
10278;DHT22;5184;51.376;7.148;2023-01-28T07:10:15;1.00;1.00
10278;DHT22;5184;51.376;7.148;2023-01-28T07:12:41;0.90;1.00
10278;DHT22;5184;51.376;7.148;2023-01-28T07:15:08;1.00;1.00
10278;DHT22;5184;51.376;7.148;2023-01-28T07:17:38;1.00;1.00
10278;DHT22;5184;51.376;7.148;2023-01-28T07:20:05;1.00;1.00
10278;DHT22;5184;51.376;7.148;2023-01-28T07:22:32;1.00;1.00
10278;DHT22;5184;51.376;7.148;2023-01-28T07:24:59;1.00;1.00
10278;DHT22;5184;51.376;7.148;2023-01-28T07:27:26;1.00;27.60
10278;DHT22;5184;51.376;7.148;2023-01-28T07:29:53;1.00;90.90
10278;DHT22;5184;51.376;7.148;2023-01-28T07:32:21;1.00;99.90
10278;DHT22;5184;51.376;7.148;2023-01-28T07:34:47;1.00;99.90
10278;DHT22;5184;51.376;7.148;2023-01-28T07:37:14;1.00;99.90
10278;DHT22;5184;51.376;7.148;2023-01-28T07:39:41;1.10;99.90
10278;DHT22;5184;51.376;7.148;2023-01-28T07:42:08;1.10;99.90
10278;DHT22;5184;51.376;7.148;2023-01-28T07:44:35;1.10;99.90
10278;DHT22;5184;51.376;7.148;2023-01-28T07:47:02;1.10;99.90
10278;DHT22;5184;51.376;7.148;2023-01-28T07:49:29;1.10;99.90
10278;DHT22;5184;51.376;7.148;2023-01-28T07:51:55;0.80;99.90
10278;DHT22;5184;51.376;7.148;2023-01-28T07:54:22;1.10;99.90
10278;DHT22;5184;51.376;7.148;2023-01-28T07:56:50;1.10;1.00
10278;DHT22;5184;51.376;7.148;2023-01-28T07:59:17;1.10;1.00
10278;DHT22;5184;51.376;7.148;2023-01-28T08:01:44;1.10;1.00
10278;DHT22;5184;51.376;7.148;2023-01-28T08:04:10;1.10;1.00
10278;DHT22;5184;51.376;7.148;2023-01-28T08:06:38;1.00;1.00
10278;DHT22;5184;51.376;7.148;2023-01-28T08:09:05;1.00;1.00
10278;DHT22;5184;51.376;7.148;2023-01-28T08:11:31;1.10;1.00
10278;DHT22;5184;51.376;7.148;2023-01-28T08:13:58;1.20;1.00
10278;DHT22;5184;51.376;7.148;2023-01-28T08:16:25;1.20;1.00
10278;DHT22;5184;51.376;7.148;2023-01-28T08:18:52;1.20;1.00
10278;DHT22;5184;51.376;7.148;2023-01-28T08:21:19;1.10;1.00
10278;DHT22;5184;51.376;7.148;2023-01-28T08:23:46;1.20;1.00
10278;DHT22;5184;51.376;7.148;2023-01-28T08:26:12;1.10;1.00
10278;DHT22;5184;51.376;7.148;2023-01-28T08:28:39;1.00;99.90
10278;DHT22;5184;51.376;7.148;2023-01-28T08:31:05;1.00;1.00
10278;DHT22;5184;51.376;7.148;2023-01-28T08:33:33;1.00;99.90
10278;DHT22;5184;51.376;7.148;2023-01-28T08:36:01;1.00;99.90
10278;DHT22;5184;51.376;7.148;2023-01-28T08:38:28;1.00;1.00
10278;DHT22;5184;51.376;7.148;2023-01-28T08:40:55;1.10;1.00
10278;DHT22;5184;51.376;7.148;2023-01-28T08:43:22;1.10;99.90
10278;DHT22;5184;51.376;7.148;2023-01-28T08:45:48;1.10;99.90
10278;DHT22;5184;51.376;7.148;2023-01-28T08:48:17;1.10;99.90
10278;DHT22;5184;51.376;7.148;2023-01-28T08:50:42;1.10;99.90
10278;DHT22;5184;51.376;7.148;2023-01-28T08:53:10;1.20;99.90
10278;DHT22;5184;51.376;7.148;2023-01-28T08:55:37;1.30;99.90
10278;DHT22;5184;51.376;7.148;2023-01-28T08:58:05;1.30;99.90
10278;DHT22;5184;51.376;7.148;2023-01-28T09:00:31;1.30;99.90
10278;DHT22;5184;51.376;7.148;2023-01-28T09:02:57;1.40;99.90
10278;DHT22;5184;51.376;7.148;2023-01-28T09:05:24;1.50;1.00
10278;DHT22;5184;51.376;7.148;2023-01-28T09:07:52;1.50;99.90
10278;DHT22;5184;51.376;7.148;2023-01-28T09:10:19;1.50;99.90
10278;DHT22;5184;51.376;7.148;2023-01-28T09:12:46;1.50;1.00
10278;DHT22;5184;51.376;7.148;2023-01-28T09:15:13;1.50;1.00
10278;DHT22;5184;51.376;7.148;2023-01-28T09:17:39;1.50;99.90
10278;DHT22;5184;51.376;7.148;2023-01-28T09:20:08;1.60;99.90
10278;DHT22;5184;51.376;7.148;2023-01-28T09:22:34;1.60;99.90
10278;DHT22;5184;51.376;7.148;2023-01-28T09:25:01;1.60;75.20
10278;DHT22;5184;51.376;7.148;2023-01-28T09:27:28;1.50;1.00
10278;DHT22;5184;51.376;7.148;2023-01-28T09:29:54;1.40;1.00
10278;DHT22;5184;51.376;7.148;2023-01-28T09:32:22;1.50;1.00
10278;DHT22;5184;51.376;7.148;2023-01-28T09:34:49;1.40;1.00
10278;DHT22;5184;51.376;7.148;2023-01-28T09:37:16;1.40;1.00
10278;DHT22;5184;51.376;7.148;2023-01-28T09:39:44;1.40;1.00
10278;DHT22;5184;51.376;7.148;2023-01-28T09:44:50;1.40;1.00
10278;DHT22;5184;51.376;7.148;2023-01-28T09:47:15;1.50;1.00
10278;DHT22;5184;51.376;7.148;2023-01-28T09:49:41;1.50;1.00
10278;DHT22;5184;51.376;7.148;2023-01-28T09:52:08;1.50;1.00
10278;DHT22;5184;51.376;7.148;2023-01-28T09:54:37;1.50;1.00
10278;DHT22;5184;51.376;7.148;2023-01-28T09:57:03;1.50;1.00
10278;DHT22;5184;51.376;7.148;2023-01-28T09:59:30;3.80;1.00
10278;DHT22;5184;51.376;7.148;2023-01-28T10:02:18;1.40;1.00
10278;DHT22;5184;51.376;7.148;2023-01-28T10:04:48;1.40;1.00
10278;DHT22;5184;51.376;7.148;2023-01-28T10:07:23;1.50;1.00
10278;DHT22;5184;51.376;7.148;2023-01-28T10:09:51;1.60;1.00
10278;DHT22;5184;51.376;7.148;2023-01-28T10:12:18;1.50;1.00
10278;DHT22;5184;51.376;7.148;2023-01-28T10:14:57;1.50;1.00
10278;DHT22;5184;51.376;7.148;2023-01-28T10:17:38;1.50;1.00
10278;DHT22;5184;51.376;7.148;2023-01-28T10:20:05;1.50;1.00
10278;DHT22;5184;51.376;7.148;2023-01-28T10:22:34;1.50;1.00
10278;DHT22;5184;51.376;7.148;2023-01-28T10:24:59;2.00;1.00
10278;DHT22;5184;51.376;7.148;2023-01-28T10:27:27;2.40;1.00
10278;DHT22;5184;51.376;7.148;2023-01-28T10:29:52;2.30;1.00
10278;DHT22;5184;51.376;7.148;2023-01-28T10:32:22;2.20;1.00
10278;DHT22;5184;51.376;7.148;2023-01-28T10:34:48;2.20;1.00
10278;DHT22;5184;51.376;7.148;2023-01-28T10:37:14;2.10;99.90
10278;DHT22;5184;51.376;7.148;2023-01-28T10:39:42;2.10;99.90
10278;DHT22;5184;51.376;7.148;2023-01-28T10:42:16;2.10;1.00
10278;DHT22;5184;51.376;7.148;2023-01-28T10:44:41;2.10;1.00
10278;DHT22;5184;51.376;7.148;2023-01-28T10:47:10;2.10;1.00
10278;DHT22;5184;51.376;7.148;2023-01-28T10:49:37;2.00;99.90
10278;DHT22;5184;51.376;7.148;2023-01-28T10:52:09;2.00;1.00
10278;DHT22;5184;51.376;7.148;2023-01-28T10:54:29;2.00;1.00
10278;DHT22;5184;51.376;7.148;2023-01-28T10:56:58;2.00;1.00
10278;DHT22;5184;51.376;7.148;2023-01-28T10:59:27;2.00;1.00
10278;DHT22;5184;51.376;7.148;2023-01-28T11:01:55;1.90;1.00
10278;DHT22;5184;51.376;7.148;2023-01-28T11:04:26;2.00;1.00
10278;DHT22;5184;51.376;7.148;2023-01-28T11:07:03;2.00;1.00
10278;DHT22;5184;51.376;7.148;2023-01-28T11:09:31;1.90;1.00
10278;DHT22;5184;51.376;7.148;2023-01-28T11:11:57;2.50;1.00
10278;DHT22;5184;51.376;7.148;2023-01-28T11:14:24;1.80;7.90
10278;DHT22;5184;51.376;7.148;2023-01-28T11:16:51;1.80;1.00
10278;DHT22;5184;51.376;7.148;2023-01-28T11:19:18;1.90;99.90
10278;DHT22;5184;51.376;7.148;2023-01-28T11:21:49;2.00;99.90
10278;DHT22;5184;51.376;7.148;2023-01-28T11:24:15;2.00;99.90
10278;DHT22;5184;51.376;7.148;2023-01-28T11:26:43;2.00;1.00
10278;DHT22;5184;51.376;7.148;2023-01-28T11:29:25;2.00;1.00
10278;DHT22;5184;51.376;7.148;2023-01-28T11:31:52;1.90;99.90
10278;DHT22;5184;51.376;7.148;2023-01-28T11:34:19;1.90;99.90
10278;DHT22;5184;51.376;7.148;2023-01-28T11:36:49;1.90;1.00
10278;DHT22;5184;51.376;7.148;2023-01-28T11:39:17;1.90;1.00
10278;DHT22;5184;51.376;7.148;2023-01-28T11:41:42;1.90;1.00
10278;DHT22;5184;51.376;7.148;2023-01-28T11:44:20;1.80;99.90
10278;DHT22;5184;51.376;7.148;2023-01-28T11:49:51;1.80;99.90
10278;DHT22;5184;51.376;7.148;2023-01-28T11:59:16;0.70;99.90
10278;DHT22;5184;51.376;7.148;2023-01-28T12:00:56;1.80;99.90
10278;DHT22;5184;51.376;7.148;2023-01-28T12:03:32;2.10;1.00
10278;DHT22;5184;51.376;7.148;2023-01-28T12:07:10;2.20;1.00
10278;DHT22;5184;51.376;7.148;2023-01-28T12:08:47;2.10;1.00
10278;DHT22;5184;51.376;7.148;2023-01-28T12:11:36;2.00;1.00
10278;DHT22;5184;51.376;7.148;2023-01-28T12:14:09;2.00;99.90
10278;DHT22;5184;51.376;7.148;2023-01-28T12:16:41;2.00;99.90
10278;DHT22;5184;51.376;7.148;2023-01-28T12:19:24;1.90;99.90
10278;DHT22;5184;51.376;7.148;2023-01-28T12:22:02;1.90;99.90
10278;DHT22;5184;51.376;7.148;2023-01-28T12:24:43;1.80;99.90
10278;DHT22;5184;51.376;7.148;2023-01-28T12:27:15;1.80;99.90
10278;DHT22;5184;51.376;7.148;2023-01-28T12:35:02;1.90;99.90
10278;DHT22;5184;51.376;7.148;2023-01-28T12:37:38;1.90;99.90
10278;DHT22;5184;51.376;7.148;2023-01-28T12:40:11;2.10;99.90
10278;DHT22;5184;51.376;7.148;2023-01-28T12:42:37;2.10;99.90
10278;DHT22;5184;51.376;7.148;2023-01-28T12:45:37;2.20;99.90
10278;DHT22;5184;51.376;7.148;2023-01-28T12:48:07;2.30;99.90
10278;DHT22;5184;51.376;7.148;2023-01-28T12:50:32;2.20;99.90
10278;DHT22;5184;51.376;7.148;2023-01-28T12:53:01;2.20;99.90
10278;DHT22;5184;51.376;7.148;2023-01-28T12:55:34;2.30;99.90
10278;DHT22;5184;51.376;7.148;2023-01-28T12:57:58;2.30;99.90
10278;DHT22;5184;51.376;7.148;2023-01-28T13:00:31;2.20;99.90
10278;DHT22;5184;51.376;7.148;2023-01-28T13:03:15;2.20;99.90
10278;DHT22;5184;51.376;7.148;2023-01-28T13:05:43;2.00;99.90
10278;DHT22;5184;51.376;7.148;2023-01-28T13:08:11;1.90;99.90
10278;DHT22;5184;51.376;7.148;2023-01-28T13:10:46;1.70;99.90
10278;DHT22;5184;51.376;7.148;2023-01-28T13:13:29;1.90;1.00
10278;DHT22;5184;51.376;7.148;2023-01-28T13:15:55;2.10;99.90
10278;DHT22;5184;51.376;7.148;2023-01-28T13:18:42;2.10;99.90
10278;DHT22;5184;51.376;7.148;2023-01-28T13:24:05;2.40;99.90
10278;DHT22;5184;51.376;7.148;2023-01-28T13:26:42;2.50;99.90
10278;DHT22;5184;51.376;7.148;2023-01-28T13:29:28;2.40;99.90
10278;DHT22;5184;51.376;7.148;2023-01-28T13:31:45;2.40;99.90
10278;DHT22;5184;51.376;7.148;2023-01-28T13:36:50;2.40;57.50
10278;DHT22;5184;51.376;7.148;2023-01-28T13:39:18;2.50;99.90
10278;DHT22;5184;51.376;7.148;2023-01-28T13:41:46;2.70;1.00
10278;DHT22;5184;51.376;7.148;2023-01-28T13:47:19;2.80;1.00
10278;DHT22;5184;51.376;7.148;2023-01-28T13:49:43;2.70;1.00
10278;DHT22;5184;51.376;7.148;2023-01-28T13:52:14;2.60;1.00
10278;DHT22;5184;51.376;7.148;2023-01-28T13:54:42;2.50;8.30
10278;DHT22;5184;51.376;7.148;2023-01-28T13:57:31;2.50;5.50
10278;DHT22;5184;51.376;7.148;2023-01-28T14:00:01;2.60;8.50
10278;DHT22;5184;51.376;7.148;2023-01-28T14:02:51;2.50;38.40
10278;DHT22;5184;51.376;7.148;2023-01-28T14:05:29;2.20;99.90
10278;DHT22;5184;51.376;7.148;2023-01-28T14:07:59;2.00;99.90
10278;DHT22;5184;51.376;7.148;2023-01-28T14:10:41;1.90;99.90
10278;DHT22;5184;51.376;7.148;2023-01-28T14:13:27;1.70;99.90
10278;DHT22;5184;51.376;7.148;2023-01-28T14:16:04;1.50;99.90
10278;DHT22;5184;51.376;7.148;2023-01-28T14:18:28;1.50;99.90
10278;DHT22;5184;51.376;7.148;2023-01-28T14:20:55;1.50;1.00
10278;DHT22;5184;51.376;7.148;2023-01-28T14:23:22;1.50;99.90
10278;DHT22;5184;51.376;7.148;2023-01-28T14:25:54;1.50;99.90
10278;DHT22;5184;51.376;7.148;2023-01-28T14:28:23;1.40;99.90
10278;DHT22;5184;51.376;7.148;2023-01-28T14:30:52;1.40;99.90
10278;DHT22;5184;51.376;7.148;2023-01-28T14:33:16;1.40;1.00
10278;DHT22;5184;51.376;7.148;2023-01-28T14:35:44;1.50;1.00
10278;DHT22;5184;51.376;7.148;2023-01-28T14:38:11;1.60;1.00
10278;DHT22;5184;51.376;7.148;2023-01-28T14:40:37;1.90;99.90
10278;DHT22;5184;51.376;7.148;2023-01-28T14:43:05;1.90;99.90
10278;DHT22;5184;51.376;7.148;2023-01-28T14:45:40;1.80;99.90
10278;DHT22;5184;51.376;7.148;2023-01-28T14:48:22;1.80;99.90
10278;DHT22;5184;51.376;7.148;2023-01-28T14:50:57;1.80;99.90
10278;DHT22;5184;51.376;7.148;2023-01-28T14:53:37;1.60;99.90
10278;DHT22;5184;51.376;7.148;2023-01-28T14:56:12;1.60;99.90
10278;DHT22;5184;51.376;7.148;2023-01-28T14:58:38;1.60;99.90
10278;DHT22;5184;51.376;7.148;2023-01-28T15:01:03;1.70;1.00
10278;DHT22;5184;51.376;7.148;2023-01-28T15:03:29;1.70;99.90
10278;DHT22;5184;51.376;7.148;2023-01-28T15:06:05;1.70;99.90
10278;DHT22;5184;51.376;7.148;2023-01-28T15:08:31;1.60;99.90
10278;DHT22;5184;51.376;7.148;2023-01-28T15:10:58;1.60;1.00
10278;DHT22;5184;51.376;7.148;2023-01-28T15:13:28;1.60;1.00
10278;DHT22;5184;51.376;7.148;2023-01-28T15:15:55;1.60;1.00
10278;DHT22;5184;51.376;7.148;2023-01-28T15:18:28;1.60;1.00
10278;DHT22;5184;51.376;7.148;2023-01-28T15:20:51;1.60;1.00
10278;DHT22;5184;51.376;7.148;2023-01-28T15:23:17;1.60;1.00
10278;DHT22;5184;51.376;7.148;2023-01-28T15:25:43;1.50;1.00
10278;DHT22;5184;51.376;7.148;2023-01-28T15:28:15;1.80;1.00
10278;DHT22;5184;51.376;7.148;2023-01-28T15:30:43;2.20;1.00
10278;DHT22;5184;51.376;7.148;2023-01-28T15:33:12;1.90;1.00
10278;DHT22;5184;51.376;7.148;2023-01-28T15:35:45;1.90;1.00
10278;DHT22;5184;51.376;7.148;2023-01-28T15:38:05;1.70;1.00
10278;DHT22;5184;51.376;7.148;2023-01-28T15:40:38;1.60;99.90
10278;DHT22;5184;51.376;7.148;2023-01-28T15:42:59;1.60;99.90
10278;DHT22;5184;51.376;7.148;2023-01-28T15:45:26;1.50;99.90
10278;DHT22;5184;51.376;7.148;2023-01-28T15:48:00;1.30;1.00
10278;DHT22;5184;51.376;7.148;2023-01-28T15:50:22;1.20;99.90
10278;DHT22;5184;51.376;7.148;2023-01-28T15:52:48;1.20;99.90
10278;DHT22;5184;51.376;7.148;2023-01-28T15:55:27;1.20;99.90
10278;DHT22;5184;51.376;7.148;2023-01-28T15:57:50;1.20;99.90
10278;DHT22;5184;51.376;7.148;2023-01-28T16:00:18;1.20;99.90
10278;DHT22;5184;51.376;7.148;2023-01-28T16:02:47;1.00;99.90
10278;DHT22;5184;51.376;7.148;2023-01-28T16:05:23;0.90;99.90
10278;DHT22;5184;51.376;7.148;2023-01-28T16:07:48;0.90;99.90
10278;DHT22;5184;51.376;7.148;2023-01-28T16:10:18;0.90;99.90
10278;DHT22;5184;51.376;7.148;2023-01-28T16:12:46;0.80;99.90
10278;DHT22;5184;51.376;7.148;2023-01-28T16:15:14;0.50;1.00
10278;DHT22;5184;51.376;7.148;2023-01-28T16:17:38;0.60;1.00
10278;DHT22;5184;51.376;7.148;2023-01-28T16:20:04;0.50;1.00
10278;DHT22;5184;51.376;7.148;2023-01-28T16:22:35;0.40;1.00
10278;DHT22;5184;51.376;7.148;2023-01-28T16:25:01;0.50;1.00
10278;DHT22;5184;51.376;7.148;2023-01-28T16:27:28;0.20;1.00
10278;DHT22;5184;51.376;7.148;2023-01-28T16:29:54;0.10;78.40
10278;DHT22;5184;51.376;7.148;2023-01-28T16:32:36;-0.10;99.90
10278;DHT22;5184;51.376;7.148;2023-01-28T16:35:03;-0.10;99.90
10278;DHT22;5184;51.376;7.148;2023-01-28T16:37:29;-0.20;99.90
10278;DHT22;5184;51.376;7.148;2023-01-28T16:39:57;-0.20;1.00
10278;DHT22;5184;51.376;7.148;2023-01-28T16:42:24;-0.20;1.00
10278;DHT22;5184;51.376;7.148;2023-01-28T16:44:51;-0.30;1.00
10278;DHT22;5184;51.376;7.148;2023-01-28T16:47:18;-0.30;1.00
10278;DHT22;5184;51.376;7.148;2023-01-28T16:49:45;-0.40;1.00